Погода Кербелана неделю

Скопье, Македония

20 - 26 июля
  • 20июля
    Сегодня
    +22°
    +38°
    Ясно и безоблачно
    ВремяПогодаТемператураВлажностьДавлениеВетер, м/сВероятность осадков
    02:00Ясно и безоблачно+25°C54 %735 мм1.3 м/с2 %
    05:00Ясно и безоблачно+23°C61 %734 мм1.2 м/с2 %
    08:00Ясно и безоблачно+26°C45 %735 мм1.1 м/с2 %
    11:00Ясно и безоблачно+34°C34 %735 мм2.6 м/с2 %
    14:00Ясно и безоблачно+37°C26 %733 мм2.4 м/с1 %
    17:00Практически безоблачно+36°C28 %732 мм3.3 м/с2 %
    20:00Практически безоблачно+31°C43 %733 мм2.8 м/с7 %
    23:00Ясно и безоблачно+27°C56 %733 мм1.9 м/с3 %
  • 21июля
    Воскресенье
    +23°
    +37°
    Ясно и безоблачно
    ВремяПогодаТемператураВлажностьДавлениеВетер, м/сВероятность осадков
    02:00Ясно и безоблачно+24°C60 %733 мм1.2 м/с2 %
    05:00Ясно и безоблачно+23°C65 %732 мм0.9 м/с2 %
    08:00Ясно и безоблачно+26°C49 %733 мм0.8 м/с2 %
    11:00Ясно и безоблачно+33°C34 %733 мм2.0 м/с2 %
    14:00Ясно и безоблачно+37°C27 %732 мм1.7 м/с4 %
    17:00Практически безоблачно+37°C27 %731 мм2.8 м/с11 %
    20:00Ясно и безоблачно+33°C36 %732 мм3.6 м/с11 %
    23:00Ясно и безоблачно+30°C44 %733 мм1.3 м/с2 %
  • 22июля
    Понедельник
    +21°
    +39°
    Ясно и безоблачно
    ВремяПогодаТемператураВлажностьДавлениеВетер, м/сВероятность осадков
    02:00Ясно и безоблачно+26°C60 %733 мм1.1 м/с2 %
    05:00Ясно и безоблачно+23°C66 %733 мм1.2 м/с2 %
    08:00Ясно и безоблачно+25°C53 %733 мм1.5 м/с2 %
    11:00Ясно и безоблачно+33°C37 %734 мм2.5 м/с4 %
    14:00Ясно и безоблачно+36°C29 %733 мм3.0 м/с5 %
    17:00Практически безоблачно+36°C33 %733 мм4.5 м/с9 %
    20:00Ясно и безоблачно+32°C40 %733 мм3.5 м/с4 %
    23:00Практически безоблачно+27°C54 %734 мм1.5 м/с2 %
  • 23июля
    Вторник
    +20°
    +34°
    Небольшая облачность, возможен дождь с грозой
    ВремяПогодаТемператураВлажностьДавлениеВетер, м/сВероятность осадков
    02:00Практически безоблачно+23°C63 %733 мм0.9 м/с2 %
    05:00Практически безоблачно+21°C66 %734 мм1.1 м/с2 %
    08:00Облачно с прояснениями+24°C53 %734 мм2.0 м/с6 %
    11:00Практически безоблачно+30°C39 %735 мм2.7 м/с32 %
    14:00Небольшая облачность, возможен дождь с грозой+34°C51 %735 мм2.6 м/с46 %
    17:00Практически безоблачно+34°C37 %734 мм4.6 м/с41 %
    20:00Ясно и безоблачно+29°C56 %734 мм3.6 м/с23 %
    23:00Ясно и безоблачно+27°C68 %734 мм1.7 м/с2 %
  • 24июля
    Среда
    +20°
    +36°
    Ясно и безоблачно
    ВремяПогодаТемператураВлажностьДавлениеВетер, м/сВероятность осадков
    02:00Ясно и безоблачно+22°C74 %734 мм1.2 м/с2 %
    05:00Ясно и безоблачно+21°C79 %734 мм0.9 м/с2 %
    08:00Ясно и безоблачно+24°C62 %734 мм1.4 м/с2 %
    11:00Ясно и безоблачно+31°C40 %734 мм2.2 м/с16 %
    14:00Ясно и безоблачно+35°C31 %732 мм2.1 м/с13 %
    17:00Ясно и безоблачно+33°C26 %730 мм4.1 м/с17 %
    20:00Ясно и безоблачно+28°C36 %730 мм4.4 м/с29 %
    23:00Ясно и безоблачно+24°C48 %731 мм2.0 м/с11 %
Мы используем cookies
Соглашаюсь